To NAV CANADA Home Page Login to a new session Search on AWWS site Feedback and Comments Disclaimer Vers la page française équivalente Tips FAQ What's new on the site To the Forecasts and Observations / NOTAM section To "File a Flight Plan" website Publications and other links Update of the User's profile FIC Telephone Numbers My Weather Data Folder Route Weather Data Regional Weather Data Local Weather Data To the Forecasts and Observations / NOTAM section
Request Generated 07/28/2015 at 08:19:21 UTC . Weather information available at that time is displayed.

METAR/TAF

SUDBURY/ON    

METAR CYSB 280700Z 30004KT 15SM FEW080 19/16 A3000 RMK AC2 SLP154
DENSITY ALT 1800FT=
METAR CYSB 280600Z 31005KT 15SM FEW085 BKN240 21/16 A3000 RMK AC2CI4
SLP156 DENSITY ALT 1900FT=
METAR CYSB 280500Z 28004KT 15SM BKN085 21/16 A3000 RMK AC7 SLP157
DENSITY ALT 2000FT=

TAF CYSB 280738Z 2808/2820 30006KT P6SM FEW080
RMK NXT FCST BY 281400Z=
Your time UTC time
Weather data provided by Environment Canada and NAV CANADA